Time;durP1;ratioP1;P1;durP2;ratioP2;P2;SDS_P1;SDS_P2;PMS_P1;PMS_P2;Temp;Humidity;BMP_temperature;BMP_pressure;BME280_temperature;BME280_humidity;BME280_pressure;Samples;Min_cycle;Max_cycle;Signal;HPM_P1;HPM_P2
2020/12/03 00:01:13;;;;;;;15.27;2.15;;;4.50;99.90;;;;;;4987129;28;20053;-90
2020/12/03 00:03:42;;;;;;;11.88;2.35;;;4.50;99.90;;;;;;5012008;28;20029;-90
2020/12/03 00:06:14;;;;;;;10.10;2.45;;;4.50;99.90;;;;;;5027933;28;20121;-89
2020/12/03 00:08:43;;;;;;;10.95;2.25;;;4.50;99.90;;;;;;5029208;28;20032;-91
2020/12/03 00:11:09;;;;;;;7.35;2.03;;;4.50;99.90;;;;;;5025756;28;20029;-89
2020/12/03 00:13:35;;;;;;;12.20;2.42;;;4.50;99.90;;;;;;5026537;28;20433;-90
2020/12/03 00:16:03;;;;;;;18.23;2.67;;;4.50;99.90;;;;;;5029356;28;20047;-91
2020/12/03 00:18:32;;;;;;;13.52;3.30;;;4.40;99.90;;;;;;5029479;28;20029;-90
2020/12/03 00:20:59;;;;;;;17.75;2.75;;;4.40;99.90;;;;;;5026831;28;20570;-90
2020/12/03 00:23:25;;;;;;;15.05;2.47;;;4.40;99.90;;;;;;5029802;28;20073;-91
2020/12/03 00:25:53;;;;;;;10.95;2.70;;;4.40;99.90;;;;;;5027277;28;20040;-90
2020/12/03 00:28:20;;;;;;;14.02;2.40;;;4.40;99.90;;;;;;5026709;28;20053;-90
2020/12/03 00:30:45;;;;;;;8.45;1.70;;;4.40;99.90;;;;;;5026607;28;20017;-90
2020/12/03 00:33:18;;;;;;;8.43;2.00;;;4.40;99.90;;;;;;5026856;28;20036;-90
2020/12/03 00:35:48;;;;;;;6.57;1.88;;;4.40;99.90;;;;;;5025931;28;20104;-91
2020/12/03 00:38:17;;;;;;;11.88;1.92;;;4.40;99.90;;;;;;5025708;28;20059;-91
2020/12/03 00:40:43;;;;;;;7.30;2.00;;;4.40;99.90;;;;;;5028334;28;20021;-91
2020/12/03 00:43:08;;;;;;;9.18;3.47;;;4.40;99.90;;;;;;5028013;28;20395;-90
2020/12/03 00:45:34;;;;;;;13.20;2.22;;;4.40;99.90;;;;;;5026869;28;20021;-91
2020/12/03 00:47:59;;;;;;;10.98;2.22;;;4.40;99.90;;;;;;5026630;28;20120;-90
2020/12/03 00:50:25;;;;;;;5.72;1.83;;;4.40;99.90;;;;;;5026142;28;20014;-91
2020/12/03 00:52:52;;;;;;;8.63;2.72;;;4.40;99.90;;;;;;5029316;28;20060;-90
2020/12/03 00:55:18;;;;;;;9.40;2.60;;;4.40;99.90;;;;;;5026302;28;20479;-90
2020/12/03 00:57:43;;;;;;;10.13;2.00;;;4.40;99.90;;;;;;5028867;28;20160;-91
2020/12/03 01:00:12;;;;;;;13.80;2.10;;;4.40;99.90;;;;;;5026343;28;20040;-90
2020/12/03 01:02:38;;;;;;;9.43;1.90;;;4.40;99.90;;;;;;5028075;28;20018;-90
2020/12/03 01:05:06;;;;;;;13.07;2.40;;;4.40;99.90;;;;;;5028608;28;20391;-89
2020/12/03 01:07:32;;;;;;;10.48;2.70;;;4.40;99.90;;;;;;5028695;28;20072;-90
2020/12/03 01:09:57;;;;;;;12.35;2.00;;;4.40;99.90;;;;;;5025410;28;20029;-90
2020/12/03 01:12:23;;;;;;;13.73;2.15;;;4.50;99.90;;;;;;5026626;28;20032;-89
2020/12/03 01:14:50;;;;;;;11.10;2.67;;;4.50;99.90;;;;;;5031703;28;20424;-91
2020/12/03 01:17:16;;;;;;;13.98;2.60;;;4.50;99.90;;;;;;5028794;28;20071;-88
2020/12/03 01:19:42;;;;;;;8.50;2.13;;;4.50;99.90;;;;;;5028793;28;20052;-91
2020/12/03 01:22:08;;;;;;;7.70;1.80;;;4.50;99.90;;;;;;5043086;28;20025;-90
2020/12/03 01:24:35;;;;;;;13.52;2.30;;;4.50;99.90;;;;;;5048502;28;20471;-90
2020/12/03 01:27:01;;;;;;;9.75;2.33;;;4.50;99.90;;;;;;5049015;28;20391;-90
2020/12/03 01:29:27;;;;;;;10.65;1.65;;;4.50;99.90;;;;;;5050317;28;20032;-90
2020/12/03 01:31:53;;;;;;;10.65;1.83;;;4.50;99.90;;;;;;5048678;28;20028;-90
2020/12/03 01:34:20;;;;;;;10.60;1.65;;;4.50;99.90;;;;;;5052396;28;20093;-90
2020/12/03 01:36:52;;;;;;;9.00;2.63;;;4.60;99.90;;;;;;5051726;28;20021;-90
2020/12/03 01:39:19;;;;;;;6.72;1.73;;;4.50;99.90;;;;;;5059071;28;20507;-91
2020/12/03 01:41:45;;;;;;;11.70;2.60;;;4.50;99.90;;;;;;5060736;28;20092;-89
2020/12/03 01:44:11;;;;;;;7.15;1.95;;;4.60;99.90;;;;;;5059122;28;20036;-89
2020/12/03 01:46:37;;;;;;;13.18;2.05;;;4.60;99.90;;;;;;5050820;28;20123;-89
2020/12/03 01:49:27;;;;;;;7.50;1.65;;;4.60;99.90;;;;;;5048604;28;20371;-89
2020/12/03 01:51:55;;;;;;;11.15;2.25;;;4.60;99.90;;;;;;5050351;28;20013;-89
2020/12/03 01:54:21;;;;;;;9.40;1.73;;;4.60;99.90;;;;;;5050117;28;20089;-90
2020/12/03 01:57:03;;;;;;;9.18;2.22;;;4.60;99.90;;;;;;5046064;28;20021;-90
2020/12/03 02:00:02;;;;;;;8.07;1.65;;;4.60;99.90;;;;;;5048204;28;20029;-90
2020/12/03 02:02:28;;;;;;;10.90;1.70;;;4.50;99.90;;;;;;5046420;28;20170;-90
2020/12/03 02:05:18;;;;;;;9.95;2.17;;;4.60;99.90;;;;;;5047834;28;20083;-90
2020/12/03 02:07:45;;;;;;;6.50;1.67;;;4.60;99.90;;;;;;5048521;28;20013;-91
2020/12/03 02:10:11;;;;;;;12.30;2.00;;;4.60;99.90;;;;;;5046048;28;20037;-90
2020/12/03 02:12:37;;;;;;;10.55;1.60;;;4.60;99.90;;;;;;5046854;28;20021;-90
2020/12/03 02:15:05;;;;;;;8.45;2.00;;;4.60;99.90;;;;;;5049191;28;20528;-90
2020/12/03 02:17:31;;;;;;;9.35;1.52;;;4.60;99.90;;;;;;5044682;28;20087;-90
2020/12/03 02:19:58;;;;;;;8.57;1.42;;;4.60;99.90;;;;;;5035859;28;20056;-90
2020/12/03 02:22:24;;;;;;;6.55;1.80;;;4.50;99.90;;;;;;5027719;28;20025;-91
2020/12/03 02:24:50;;;;;;;10.40;1.80;;;4.50;99.90;;;;;;5027831;28;20039;-89
2020/12/03 02:27:18;;;;;;;8.77;1.75;;;4.50;99.90;;;;;;5027731;28;20135;-90
2020/12/03 02:29:44;;;;;;;7.82;1.42;;;4.50;99.90;;;;;;5027100;28;20093;-90
2020/12/03 02:32:10;;;;;;;3.28;1.40;;;4.60;99.90;;;;;;5024700;28;20490;-90
2020/12/03 02:34:36;;;;;;;5.30;1.50;;;4.50;99.90;;;;;;5027206;28;20049;-90
2020/12/03 02:37:02;;;;;;;7.88;1.70;;;4.60;99.90;;;;;;5025764;28;20029;-90
2020/12/03 02:39:30;;;;;;;9.13;1.95;;;4.50;99.90;;;;;;5026368;28;20033;-89
2020/12/03 02:41:57;;;;;;;12.85;2.53;;;4.50;99.90;;;;;;5026841;28;20036;-90
2020/12/03 02:44:24;;;;;;;4.60;1.58;;;4.50;99.90;;;;;;5026699;28;20060;-90
2020/12/03 02:46:49;;;;;;;5.95;1.80;;;4.50;99.90;;;;;;5026532;28;20089;-90
2020/12/03 02:49:16;;;;;;;2.42;1.33;;;4.50;99.90;;;;;;5024549;28;20053;-90
2020/12/03 02:51:42;;;;;;;7.55;1.40;;;4.50;99.90;;;;;;5025428;28;20025;-90
2020/12/03 02:54:10;;;;;;;3.50;1.60;;;4.50;99.90;;;;;;5028988;28;20029;-89
2020/12/03 02:56:36;;;;;;;8.77;2.60;;;4.50;99.90;;;;;;5023650;28;20028;-89
2020/12/03 02:59:02;;;;;;;9.32;1.98;;;4.50;99.90;;;;;;5026333;28;20037;-90
2020/12/03 03:01:27;;;;;;;8.48;1.50;;;4.50;99.90;;;;;;5026418;28;20036;-89
2020/12/03 03:03:53;;;;;;;5.60;1.98;;;4.50;99.90;;;;;;5024310;28;20372;-90
2020/12/03 03:06:19;;;;;;;5.55;1.52;;;4.50;99.90;;;;;;5021598;28;20033;-91
2020/12/03 03:08:45;;;;;;;7.75;1.80;;;4.50;99.90;;;;;;5027451;28;20024;-90
2020/12/03 03:11:10;;;;;;;13.27;3.28;;;4.50;99.90;;;;;;5024174;28;20108;-90
2020/12/03 03:13:36;;;;;;;7.68;1.90;;;4.50;99.90;;;;;;5024321;28;20554;-90
2020/12/03 03:16:02;;;;;;;7.40;1.65;;;4.50;99.90;;;;;;5025234;28;20032;-90
2020/12/03 03:18:28;;;;;;;7.75;2.03;;;4.50;99.90;;;;;;5025866;28;20029;-89
2020/12/03 03:20:53;;;;;;;6.15;1.58;;;4.50;99.90;;;;;;5043108;28;20041;-90
2020/12/03 03:23:19;;;;;;;5.03;2.08;;;4.50;99.90;;;;;;5045249;28;20025;-89
2020/12/03 03:25:45;;;;;;;11.10;2.15;;;4.50;99.90;;;;;;5045074;28;20419;-90
2020/12/03 03:28:11;;;;;;;8.88;1.70;;;4.50;99.90;;;;;;5052453;28;20501;-89
2020/12/03 03:30:36;;;;;;;8.27;1.95;;;4.50;99.90;;;;;;5049370;28;20398;-90
2020/12/03 03:33:04;;;;;;;9.23;2.05;;;4.50;99.90;;;;;;5046763;28;20041;-90
2020/12/03 03:35:29;;;;;;;9.35;2.42;;;4.50;99.90;;;;;;5049120;28;20024;-90
2020/12/03 03:37:56;;;;;;;7.70;2.80;;;4.50;99.90;;;;;;5047349;28;20037;-89
2020/12/03 03:40:22;;;;;;;6.88;2.20;;;4.50;99.90;;;;;;5048566;28;20086;-89
2020/12/03 03:42:47;;;;;;;5.88;2.30;;;4.50;99.90;;;;;;5049647;28;20031;-90
2020/12/03 03:45:13;;;;;;;6.53;1.75;;;4.50;99.90;;;;;;5048935;28;20108;-89
2020/12/03 03:47:40;;;;;;;6.82;1.90;;;4.50;99.90;;;;;;5046603;28;20043;-90
2020/12/03 03:50:07;;;;;;;6.30;1.67;;;4.50;99.90;;;;;;5048544;28;20566;-90
2020/12/03 03:52:33;;;;;;;9.68;1.80;;;4.50;99.90;;;;;;5049721;28;20398;-89
2020/12/03 03:54:59;;;;;;;6.57;2.08;;;4.50;99.90;;;;;;5049056;28;20029;-89
2020/12/03 03:57:25;;;;;;;9.55;2.05;;;4.50;99.90;;;;;;5048386;28;20020;-89
2020/12/03 03:59:51;;;;;;;5.13;1.63;;;4.40;99.90;;;;;;5046666;28;20506;-89
2020/12/03 04:02:18;;;;;;;7.28;1.50;;;4.40;99.90;;;;;;5049575;28;20028;-89
2020/12/03 04:04:44;;;;;;;5.50;1.70;;;4.50;99.90;;;;;;5046412;28;20047;-90
2020/12/03 04:07:10;;;;;;;2.95;0.98;;;4.50;99.90;;;;;;5046453;28;20502;-90
2020/12/03 04:09:35;;;;;;;3.35;1.08;;;4.40;99.90;;;;;;5069182;28;20065;-90
2020/12/03 04:12:01;;;;;;;3.55;1.33;;;4.40;99.90;;;;;;5049033;28;20029;-89
2020/12/03 04:14:27;;;;;;;4.82;1.23;;;4.40;99.90;;;;;;5047010;28;20021;-90
2020/12/03 04:16:52;;;;;;;1.45;0.93;;;4.40;99.90;;;;;;5046618;28;20017;-90
2020/12/03 04:19:18;;;;;;;1.58;0.90;;;4.40;99.90;;;;;;5042007;28;20045;-90
2020/12/03 04:21:43;;;;;;;2.10;0.90;;;4.40;99.90;;;;;;5027790;28;20013;-90
2020/12/03 04:24:09;;;;;;;2.03;1.02;;;4.40;99.90;;;;;;5029538;28;20029;-91
2020/12/03 04:26:35;;;;;;;3.10;1.05;;;4.40;99.90;;;;;;5029478;28;20053;-90
2020/12/03 04:29:00;;;;;;;2.75;0.90;;;4.40;99.90;;;;;;5027880;28;20025;-90
2020/12/03 04:31:26;;;;;;;3.10;0.95;;;4.30;99.90;;;;;;5026129;28;20059;-90
2020/12/03 04:33:51;;;;;;;4.40;0.80;;;4.40;99.90;;;;;;5028730;28;20017;-90
2020/12/03 04:36:17;;;;;;;2.50;1.00;;;4.30;99.90;;;;;;5026937;28;20032;-89
2020/12/03 04:38:43;;;;;;;4.35;0.95;;;4.30;99.90;;;;;;5029277;28;20032;-90
2020/12/03 04:41:09;;;;;;;2.20;0.95;;;4.30;99.90;;;;;;5026437;28;20033;-90
2020/12/03 04:43:43;;;;;;;5.60;0.95;;;4.30;99.90;;;;;;5026011;28;20101;-90
2020/12/03 04:46:44;;;;;;;4.50;0.98;;;4.30;99.90;;;;;;5025525;28;20116;-91
2020/12/03 04:49:36;;;;;;;1.65;1.10;;;4.30;99.90;;;;;;5031093;28;20025;-90
2020/12/03 04:52:23;;;;;;;4.00;0.85;;;4.30;99.90;;;;;;5022802;28;20033;-90
2020/12/03 04:55:17;;;;;;;1.70;0.80;;;4.30;99.90;;;;;;5025361;28;20051;-91
2020/12/03 04:58:01;;;;;;;3.40;0.90;;;4.30;99.90;;;;;;5027281;28;20509;-91
2020/12/03 05:00:43;;;;;;;1.63;0.90;;;4.30;99.90;;;;;;5027406;28;20045;-91
2020/12/03 05:03:27;;;;;;;1.05;0.90;;;4.20;99.90;;;;;;5028337;28;20016;-91
2020/12/03 05:06:18;;;;;;;1.05;0.88;;;4.20;99.90;;;;;;5028337;28;20029;-90
2020/12/03 05:09:24;;;;;;;2.60;0.98;;;4.20;99.90;;;;;;5025376;28;20025;-92
2020/12/03 05:11:54;;;;;;;4.20;1.30;;;4.20;99.90;;;;;;5040815;28;20025;-91
2020/12/03 05:14:39;;;;;;;;;;;4.30;99.90;;;;;;5026896;28;20029;-91
2020/12/03 05:17:28;;;;;;;2.03;1.20;;;4.20;99.90;;;;;;5025945;28;19905;-92
2020/12/03 05:20:42;;;;;;;2.92;1.75;;;4.20;99.90;;;;;;5047007;28;20485;-90
2020/12/03 05:23:18;;;;;;;2.03;1.50;;;4.20;99.90;;;;;;5026618;28;20032;-91
2020/12/03 05:25:45;;;;;;;5.57;1.60;;;4.20;99.90;;;;;;5044622;28;20385;-90
2020/12/03 05:29:00;;;;;;;3.13;1.58;;;4.20;99.90;;;;;;5047424;28;20034;-91
2020/12/03 05:31:28;;;;;;;1.83;1.42;;;4.20;99.90;;;;;;5046793;28;20040;-91
2020/12/03 05:33:58;;;;;;;3.47;1.27;;;4.20;99.90;;;;;;5047813;28;20094;-91
2020/12/03 05:36:28;;;;;;;2.33;1.52;;;4.20;99.90;;;;;;5046407;28;20020;-91
2020/12/03 05:38:55;;;;;;;2.83;1.30;;;4.10;99.90;;;;;;5047527;28;20055;-91
2020/12/03 05:41:23;;;;;;;5.07;1.45;;;4.10;99.90;;;;;;5046195;28;20020;-91
2020/12/03 05:43:48;;;;;;;3.35;1.20;;;4.20;99.90;;;;;;5047292;28;20599;-90
2020/12/03 05:46:16;;;;;;;4.07;1.45;;;4.20;99.90;;;;;;5046919;28;20031;-89
2020/12/03 05:48:59;;;;;;;1.27;0.80;;;4.10;99.90;;;;;;5042865;28;20053;-91
2020/12/03 05:51:32;;;;;;;2.08;0.98;;;4.20;99.90;;;;;;5050050;28;20052;-91
2020/12/03 05:54:04;;;;;;;2.72;1.15;;;4.20;99.90;;;;;;5050191;28;20062;-91
2020/12/03 05:56:31;;;;;;;2.03;1.30;;;4.10;99.90;;;;;;5049811;28;20021;-91
2020/12/03 05:59:13;;;;;;;4.10;1.52;;;4.10;99.90;;;;;;5050747;28;20085;-89
2020/12/03 06:01:53;;;;;;;3.88;1.27;;;4.10;99.90;;;;;;5045506;28;20056;-91
2020/12/03 06:04:29;;;;;;;5.95;1.67;;;4.10;99.90;;;;;;5044920;28;20029;-92
2020/12/03 06:07:19;;;;;;;3.92;1.42;;;4.10;99.90;;;;;;5044507;28;20103;-92
2020/12/03 06:10:14;;;;;;;4.13;1.33;;;4.10;99.90;;;;;;5065199;28;20012;-91
2020/12/03 06:13:12;;;;;;;3.55;1.13;;;4.10;99.90;;;;;;5041959;28;20324;-92
2020/12/03 06:15:52;;;;;;;3.38;0.95;;;4.10;99.90;;;;;;5041148;28;20055;-91
2020/12/03 06:18:39;;;;;;;1.05;0.95;;;4.10;99.90;;;;;;5041993;28;20056;-90
2020/12/03 06:21:44;;;;;;;3.05;1.20;;;4.00;99.90;;;;;;5022313;28;20374;-90
2020/12/03 06:24:38;;;;;;;1.70;1.02;;;4.00;99.90;;;;;;5024332;28;20277;-90
2020/12/03 06:27:34;;;;;;;3.90;1.45;;;4.00;99.90;;;;;;5024509;28;20025;-92
2020/12/03 06:30:08;;;;;;;2.88;0.90;;;4.00;99.90;;;;;;5018303;28;20033;-89
2020/12/03 06:32:59;;;;;;;1.55;1.00;;;4.00;99.90;;;;;;5021765;28;20053;-90
2020/12/03 06:35:31;;;;;;;2.58;1.10;;;4.00;99.90;;;;;;5023157;28;20028;-91
2020/12/03 06:38:29;;;;;;;2.45;1.10;;;4.00;99.90;;;;;;5026110;28;20037;-90
2020/12/03 06:41:17;;;;;;;4.15;1.33;;;4.00;99.90;;;;;;5019237;28;20493;-89
2020/12/03 06:43:48;;;;;;;1.50;1.02;;;3.90;99.90;;;;;;5024277;28;20398;-90
2020/12/03 06:46:53;;;;;;;3.15;0.90;;;3.90;99.90;;;;;;5032249;28;20017;-91
2020/12/03 06:49:49;;;;;;;3.22;0.85;;;3.90;99.90;;;;;;5023719;28;20057;-91
2020/12/03 06:52:42;;;;;;;2.05;0.85;;;3.90;99.90;;;;;;5021110;28;20474;-90
2020/12/03 06:55:40;;;;;;;2.10;0.60;;;3.90;99.90;;;;;;5030849;28;20025;-91
2020/12/03 06:58:30;;;;;;;2.45;0.80;;;3.90;99.90;;;;;;5025562;28;20053;-91
2020/12/03 07:01:28;;;;;;;3.97;1.15;;;3.90;99.90;;;;;;5049691;28;20026;-91
2020/12/03 07:04:13;;;;;;;1.90;1.38;;;3.90;99.90;;;;;;5029706;28;20178;-90
2020/12/03 07:07:13;;;;;;;1.75;1.10;;;3.80;99.90;;;;;;5028017;28;20621;-91
2020/12/03 07:10:04;;;;;;;3.13;1.20;;;3.80;99.90;;;;;;5031280;28;20025;-90
2020/12/03 07:12:41;;;;;;;1.52;1.13;;;3.80;99.90;;;;;;5030951;28;20029;-90
2020/12/03 07:15:32;;;;;;;2.13;1.30;;;3.90;99.90;;;;;;5029293;28;20065;-90
2020/12/03 07:18:07;;;;;;;;;;;3.80;99.90;;;;;;5029572;28;20034;-91
2020/12/03 07:20:41;;;;;;;4.03;1.30;;;3.80;99.90;;;;;;5031057;28;20400;-91
2020/12/03 07:23:12;;;;;;;4.00;1.40;;;3.80;99.90;;;;;;5034504;28;20060;-92
2020/12/03 07:25:44;;;;;;;2.17;1.65;;;3.80;99.90;;;;;;5032391;28;20024;-91
2020/12/03 07:28:38;;;;;;;4.05;1.33;;;3.80;99.90;;;;;;5047116;28;20044;-91
2020/12/03 07:31:19;;;;;;;2.70;1.60;;;3.80;99.90;;;;;;5019676;28;20042;-91
2020/12/03 07:34:14;;;;;;;4.20;1.40;;;3.80;99.90;;;;;;5032264;28;20040;-91
2020/12/03 07:37:18;;;;;;;2.97;1.50;;;3.80;99.90;;;;;;5013879;28;20112;-91
2020/12/03 07:39:49;;;;;;;3.63;1.50;;;3.80;99.90;;;;;;5027766;28;20029;-91
2020/12/03 07:42:20;;;;;;;2.55;1.50;;;3.80;99.90;;;;;;5029526;28;20025;-91
2020/12/03 07:44:50;;;;;;;2.08;1.52;;;3.80;99.90;;;;;;5025044;28;20029;-91
2020/12/03 07:47:37;;;;;;;2.15;1.52;;;3.80;99.90;;;;;;5028664;28;20036;-90
2020/12/03 07:50:06;;;;;;;4.78;1.88;;;3.80;99.90;;;;;;5027374;28;20104;-90
2020/12/03 07:52:38;;;;;;;4.60;1.58;;;3.80;99.90;;;;;;5029007;28;20032;-94
2020/12/03 07:55:23;;;;;;;3.08;1.92;;;3.80;99.90;;;;;;5036425;28;20025;-91
2020/12/03 07:57:59;;;;;;;3.58;1.80;;;3.80;99.90;;;;;;5036999;28;20025;-92
2020/12/03 08:00:43;;;;;;;3.83;2.47;;;3.80;99.90;;;;;;5018904;28;20041;-90
2020/12/03 08:03:29;;;;;;;3.53;2.45;;;3.80;99.90;;;;;;5018436;28;20024;-90
2020/12/03 08:06:07;;;;;;;3.45;1.90;;;3.80;99.90;;;;;;5018297;28;20115;-92
2020/12/03 08:08:36;;;;;;;3.15;2.30;;;3.80;99.90;;;;;;5037396;28;20363;-91
2020/12/03 08:11:03;;;;;;;4.35;2.40;;;3.80;99.90;;;;;;5037752;28;20029;-91
2020/12/03 08:13:34;;;;;;;4.55;2.63;;;3.80;99.90;;;;;;5038121;28;20079;-91
2020/12/03 08:16:03;;;;;;;3.50;2.53;;;3.80;99.90;;;;;;5030677;28;20505;-90
2020/12/03 08:18:42;;;;;;;5.53;2.50;;;3.80;99.90;;;;;;5025665;28;20505;-90
2020/12/03 08:21:10;;;;;;;5.20;3.03;;;3.80;99.90;;;;;;5016970;28;20041;-91
2020/12/03 08:23:36;;;;;;;5.13;3.60;;;3.80;99.90;;;;;;5017406;28;20026;-91
2020/12/03 08:26:01;;;;;;;5.18;2.40;;;3.80;99.90;;;;;;5023134;28;20048;-91
2020/12/03 08:28:32;;;;;;;3.78;3.20;;;3.80;99.90;;;;;;5036952;28;20032;-92
2020/12/03 08:30:57;;;;;;;5.65;3.25;;;3.80;99.90;;;;;;5036946;28;20182;-92
2020/12/03 08:33:34;;;;;;;4.70;3.47;;;3.80;99.90;;;;;;5037221;28;20509;-91
2020/12/03 08:36:04;;;;;;;4.88;3.35;;;3.80;99.90;;;;;;5029382;28;20029;-91
2020/12/03 08:38:36;;;;;;;6.70;3.83;;;3.90;99.90;;;;;;5018012;28;20064;-91
2020/12/03 08:41:09;;;;;;;5.07;3.20;;;3.90;99.90;;;;;;5017258;28;20075;-92
2020/12/03 08:43:44;;;;;;;4.28;3.13;;;3.90;99.90;;;;;;5017571;28;20025;-92
2020/12/03 08:48:41;;;;;;;6.53;3.47;;;3.90;99.90;;;;;;5043483;28;20037;-92
2020/12/03 08:51:09;;;;;;;5.13;3.78;;;4.00;99.90;;;;;;5036614;28;20025;-92
2020/12/03 08:53:37;;;;;;;4.47;3.58;;;4.00;99.90;;;;;;5009060;28;20029;-92
2020/12/03 08:56:15;;;;;;;5.15;3.53;;;4.00;99.90;;;;;;5010781;28;20029;-91
2020/12/03 08:59:20;;;;;;;6.00;3.58;;;4.00;99.90;;;;;;5032585;28;20080;-91
2020/12/03 09:01:59;;;;;;;5.82;3.78;;;4.00;99.90;;;;;;5026750;28;20051;-92
2020/12/03 09:04:28;;;;;;;7.32;3.92;;;4.00;99.90;;;;;;5025828;28;20021;-92
2020/12/03 09:06:57;;;;;;;6.28;4.07;;;4.10;99.90;;;;;;5025184;28;20123;-92
2020/12/03 09:09:25;;;;;;;9.27;4.45;;;4.10;99.90;;;;;;5023892;28;20041;-92
2020/12/03 09:11:52;;;;;;;9.13;5.60;;;4.10;99.90;;;;;;5032722;28;20037;-94
2020/12/03 09:14:19;;;;;;;8.25;4.97;;;4.10;99.90;;;;;;5036249;28;20247;-93
2020/12/03 09:16:50;;;;;;;10.52;5.07;;;4.10;99.90;;;;;;5033401;28;20056;-93
2020/12/03 09:19:23;;;;;;;7.57;4.72;;;4.10;99.90;;;;;;5030040;28;20050;-92
2020/12/03 09:21:51;;;;;;;10.32;5.22;;;4.10;99.90;;;;;;5043506;28;20024;-94
2020/12/03 09:24:22;;;;;;;7.70;4.45;;;4.10;99.90;;;;;;5039586;28;20016;-92
2020/12/03 09:26:49;;;;;;;7.82;4.82;;;4.10;99.90;;;;;;5043937;28;20056;-92
2020/12/03 09:29:14;;;;;;;7.05;4.18;;;4.10;99.90;;;;;;5049833;28;20041;-91
2020/12/03 09:31:40;;;;;;;8.63;4.82;;;4.10;99.90;;;;;;5044942;28;20061;-92
2020/12/03 09:34:08;;;;;;;5.38;3.88;;;4.10;99.90;;;;;;5043799;28;20055;-91
2020/12/03 09:36:36;;;;;;;8.90;4.03;;;4.10;99.90;;;;;;5042916;28;20025;-91
2020/12/03 09:39:02;;;;;;;6.50;4.45;;;4.10;99.90;;;;;;5041271;28;20048;-91
2020/12/03 09:41:28;;;;;;;6.63;3.60;;;4.10;99.90;;;;;;5040475;28;20467;-91
2020/12/03 09:43:58;;;;;;;5.05;3.75;;;4.10;99.90;;;;;;5042792;28;20028;-91
2020/12/03 09:46:28;;;;;;;6.05;4.03;;;4.10;99.90;;;;;;5042015;28;20032;-91
2020/12/03 09:48:55;;;;;;;7.40;3.50;;;4.10;99.90;;;;;;5043741;28;20035;-90
2020/12/03 09:51:25;;;;;;;6.75;3.88;;;4.00;99.90;;;;;;5042757;28;20100;-93
2020/12/03 09:53:51;;;;;;;6.63;3.72;;;4.00;99.90;;;;;;5051057;28;20036;-93
2020/12/03 09:56:21;;;;;;;8.02;4.10;;;4.00;99.90;;;;;;5041752;28;20025;-93
2020/12/03 09:58:56;;;;;;;5.85;3.85;;;4.00;99.90;;;;;;5041503;28;20032;-92
2020/12/03 10:01:33;;;;;;;6.35;4.65;;;4.00;99.90;;;;;;5039447;28;20029;-93
2020/12/03 10:04:32;;;;;;;8.93;4.65;;;4.00;99.90;;;;;;5041709;28;20477;-93
2020/12/03 10:07:09;;;;;;;6.15;4.15;;;4.00;99.90;;;;;;5041322;28;20029;-93
2020/12/03 10:10:01;;;;;;;6.47;3.92;;;4.00;99.90;;;;;;5057472;28;20082;-93
2020/12/03 10:13:00;;;;;;;6.18;4.18;;;4.00;99.90;;;;;;5041170;28;20033;-93
2020/12/03 10:15:50;;;;;;;6.20;4.35;;;4.00;99.90;;;;;;5026122;28;20032;-91
2020/12/03 10:18:21;;;;;;;7.07;4.78;;;4.00;99.90;;;;;;5041081;28;20482;-93
2020/12/03 10:20:51;;;;;;;6.03;4.60;;;4.00;99.90;;;;;;5053228;28;20056;-93
2020/12/03 10:23:35;;;;;;;6.55;4.03;;;4.00;99.90;;;;;;5042313;28;20021;-93
2020/12/03 10:26:15;;;;;;;5.25;3.22;;;4.10;99.90;;;;;;5043649;28;20032;-93
2020/12/03 10:28:49;;;;;;;3.72;2.67;;;4.10;99.90;;;;;;5042974;28;20059;-93
2020/12/03 10:31:16;;;;;;;4.70;2.75;;;4.00;99.90;;;;;;5040356;28;20051;-93
2020/12/03 10:33:47;;;;;;;4.95;2.53;;;4.00;99.90;;;;;;5044287;28;20021;-93
2020/12/03 10:36:34;;;;;;;3.60;2.58;;;4.10;99.90;;;;;;5043798;28;20111;-94
2020/12/03 10:39:02;;;;;;;3.10;2.63;;;4.10;99.90;;;;;;5043962;28;20087;-93
2020/12/03 10:41:34;;;;;;;3.22;2.70;;;4.10;99.90;;;;;;5046773;28;20040;-94
2020/12/03 10:44:02;;;;;;;3.53;2.70;;;4.10;99.90;;;;;;5046353;28;20039;-94
2020/12/03 10:46:32;;;;;;;5.55;2.90;;;4.10;99.90;;;;;;5052223;28;20032;-94
2020/12/03 10:48:59;;;;;;;3.85;2.80;;;4.10;99.90;;;;;;5044496;28;20025;-95
2020/12/03 10:51:25;;;;;;;3.60;2.80;;;4.10;99.90;;;;;;5046669;28;20462;-95
2020/12/03 10:53:53;;;;;;;3.88;2.90;;;4.20;99.90;;;;;;5047389;28;20025;-93
2020/12/03 10:56:26;;;;;;;4.13;2.45;;;4.10;99.90;;;;;;5046912;28;20462;-94
2020/12/03 10:59:22;;;;;;;2.67;2.28;;;4.10;99.90;;;;;;5046807;28;20036;-93
2020/12/03 11:01:55;;;;;;;2.25;2.05;;;4.10;99.90;;;;;;5046734;28;20024;-94
2020/12/03 11:04:24;;;;;;;2.10;1.90;;;4.10;99.90;;;;;;5044760;28;20024;-94
2020/12/03 11:06:49;;;;;;;5.80;2.15;;;4.10;99.90;;;;;;5045093;28;20021;-93
2020/12/03 11:09:17;;;;;;;4.65;2.28;;;4.10;99.90;;;;;;5045519;28;20104;-93
2020/12/03 11:11:43;;;;;;;3.65;2.58;;;4.00;99.90;;;;;;5044504;28;20032;-91
2020/12/03 11:14:11;;;;;;;4.13;2.40;;;4.00;99.90;;;;;;5043328;28;20092;-92
2020/12/03 11:16:43;;;;;;;3.25;2.20;;;4.10;99.90;;;;;;5061168;28;20048;-94
2020/12/03 11:19:15;;;;;;;2.88;1.98;;;4.10;99.90;;;;;;5042007;28;20079;-94
2020/12/03 11:21:47;;;;;;;2.05;1.80;;;4.10;99.90;;;;;;5047407;28;20024;-92
2020/12/03 11:24:44;;;;;;;2.00;1.83;;;4.10;99.90;;;;;;5045201;28;20033;-94
2020/12/03 11:27:10;;;;;;;4.43;1.90;;;4.10;99.90;;;;;;5044612;28;20058;-94
2020/12/03 11:29:36;;;;;;;2.22;2.03;;;4.10;99.90;;;;;;5043793;28;20043;-94
2020/12/03 11:32:02;;;;;;;3.00;1.98;;;4.10;99.90;;;;;;5046210;28;20031;-92
2020/12/03 11:34:36;;;;;;;3.22;2.20;;;4.10;99.90;;;;;;5045812;28;20025;-92
2020/12/03 11:37:02;;;;;;;2.53;2.05;;;4.10;99.90;;;;;;5043460;28;20524;-91
2020/12/03 11:39:29;;;;;;;2.85;2.45;;;4.10;99.90;;;;;;5046709;28;20041;-93
2020/12/03 11:42:33;;;;;;;3.92;2.80;;;4.10;99.90;;;;;;5046478;28;20070;-92
2020/12/03 11:48:04;;;;;;;3.83;3.22;;;4.20;99.90;;;;;;5064862;28;20025;-94
2020/12/03 11:50:38;;;;;;;3.47;2.83;;;4.20;99.90;;;;;;5048594;28;20036;-93
2020/12/03 11:53:05;;;;;;;4.93;3.30;;;4.20;99.90;;;;;;5047740;28;20280;-92
2020/12/03 11:55:40;;;;;;;4.10;3.03;;;4.20;99.90;;;;;;5058671;28;20092;-92
2020/12/03 11:58:09;;;;;;;3.55;2.92;;;4.20;99.90;;;;;;5046708;28;20428;-92
2020/12/03 12:00:36;;;;;;;3.70;2.63;;;4.20;99.90;;;;;;5044891;28;20097;-94
2020/12/03 12:03:09;;;;;;;3.63;3.17;;;4.30;99.90;;;;;;5041611;28;20017;-93
2020/12/03 12:10:39;;;;;;;5.55;2.90;;;4.30;99.90;;;;;;5060063;28;20021;-94
2020/12/03 12:13:05;;;;;;;4.25;3.42;;;4.20;99.90;;;;;;5043610;28;20159;-93
2020/12/03 12:15:30;;;;;;;3.38;2.95;;;4.20;99.90;;;;;;5067756;28;20145;-93
2020/12/03 12:17:56;;;;;;;2.80;2.40;;;4.20;99.90;;;;;;5041663;28;20083;-94
2020/12/03 12:20:23;;;;;;;2.90;2.35;;;4.10;99.90;;;;;;5043634;28;20520;-94
2020/12/03 12:22:49;;;;;;;3.05;2.35;;;4.10;99.90;;;;;;5039489;28;20052;-94
2020/12/03 12:25:15;;;;;;;2.60;2.35;;;4.10;99.90;;;;;;5044411;28;20057;-94
2020/12/03 12:27:40;;;;;;;2.53;1.90;;;4.10;99.90;;;;;;5044812;28;20494;-93
2020/12/03 12:30:06;;;;;;;2.00;1.65;;;4.10;99.90;;;;;;5044224;28;20032;-94
2020/12/03 12:32:32;;;;;;;2.58;1.95;;;4.10;99.90;;;;;;5044160;28;20021;-94
2020/12/03 12:34:58;;;;;;;2.42;2.10;;;4.10;99.90;;;;;;5044209;28;20040;-93
2020/12/03 12:37:24;;;;;;;2.53;2.10;;;4.20;99.90;;;;;;5043632;28;20524;-93
2020/12/03 12:39:49;;;;;;;1.58;1.48;;;4.20;99.90;;;;;;5043112;28;20121;-93
2020/12/03 12:42:15;;;;;;;1.80;1.70;;;4.30;99.90;;;;;;5042521;28;20541;-95
2020/12/03 12:44:41;;;;;;;1.55;1.45;;;4.30;99.90;;;;;;5042420;28;20481;-95
2020/12/03 12:47:07;;;;;;;4.05;2.15;;;4.30;99.90;;;;;;5043610;28;20013;-95
2020/12/03 12:49:33;;;;;;;1.85;1.50;;;4.30;99.90;;;;;;5044667;28;20104;-93
2020/12/03 12:51:59;;;;;;;2.05;1.38;;;4.30;99.90;;;;;;5046566;28;20055;-93
2020/12/03 12:54:25;;;;;;;2.28;1.42;;;4.30;99.90;;;;;;5043414;28;20025;-93
2020/12/03 12:56:53;;;;;;;1.45;1.35;;;4.40;99.90;;;;;;5044479;28;20055;-93
2020/12/03 12:59:19;;;;;;;3.30;1.35;;;4.40;99.90;;;;;;5042323;28;20078;-94
2020/12/03 13:01:49;;;;;;;2.78;1.42;;;4.40;99.90;;;;;;5041553;28;20436;-93
2020/12/03 13:04:15;;;;;;;2.28;1.33;;;4.40;99.90;;;;;;5041073;28;20481;-95
2020/12/03 13:06:42;;;;;;;1.77;1.25;;;4.50;99.90;;;;;;5044865;28;20032;-94
2020/12/03 13:09:11;;;;;;;1.95;1.55;;;4.50;99.90;;;;;;5042773;28;20112;-95
2020/12/03 13:11:37;;;;;;;2.78;1.75;;;4.50;99.90;;;;;;5040542;28;20475;-95
2020/12/03 13:14:08;;;;;;;1.73;1.58;;;4.60;99.90;;;;;;5042411;28;20028;-94
2020/12/03 13:16:37;;;;;;;1.63;1.33;;;4.60;99.90;;;;;;5044913;28;20461;-93
2020/12/03 13:19:04;;;;;;;2.33;2.05;;;4.60;99.90;;;;;;5041880;28;20124;-94
2020/12/03 13:21:31;;;;;;;2.75;2.38;;;4.60;99.90;;;;;;5047283;28;20064;-93
2020/12/03 13:23:58;;;;;;;3.47;2.55;;;4.60;99.90;;;;;;5043848;28;20040;-94
2020/12/03 13:26:23;;;;;;;3.33;2.70;;;4.60;99.90;;;;;;5041429;28;20025;-93
2020/12/03 13:28:50;;;;;;;3.15;2.25;;;4.60;99.90;;;;;;5041020;28;20024;-94
2020/12/03 13:31:16;;;;;;;2.58;2.38;;;4.60;99.90;;;;;;5050269;28;20028;-93
2020/12/03 13:33:44;;;;;;;2.85;2.42;;;4.60;99.90;;;;;;5045856;28;20043;-93